createdAt,value
2022-08-12T00:01:04.674Z,64.43
2022-08-12T00:03:51.436Z,64.76
2022-08-12T00:06:40.121Z,65.06
2022-08-12T00:09:27.020Z,64.90
2022-08-12T00:12:13.606Z,64.57
2022-08-12T00:15:01.773Z,64.96
2022-08-12T00:17:48.585Z,64.98
2022-08-12T00:20:34.036Z,65.60
2022-08-12T00:23:20.158Z,65.30
2022-08-12T00:26:23.670Z,65.03
2022-08-12T00:29:13.032Z,64.98
2022-08-12T00:32:01.208Z,65.09
2022-08-12T00:34:51.795Z,65.33
2022-08-12T00:37:41.510Z,65.62
2022-08-12T00:40:30.057Z,65.90
2022-08-12T00:42:58.385Z,65.87
2022-08-12T00:45:26.106Z,66.41
2022-08-12T00:47:53.810Z,66.76
2022-08-12T00:50:23.176Z,66.75
2022-08-12T00:52:52.892Z,66.49
2022-08-12T00:55:21.298Z,67.00
2022-08-12T00:57:50.888Z,66.68
2022-08-12T01:00:22.638Z,66.58
2022-08-12T01:02:57.639Z,66.33
2022-08-12T01:05:44.771Z,66.57
2022-08-12T01:08:30.560Z,67.45
2022-08-12T01:11:16.740Z,68.05
2022-08-12T01:13:48.780Z,69.39
2022-08-12T01:16:22.907Z,70.15
2022-08-12T01:18:53.361Z,70.24
2022-08-12T01:21:35.289Z,70.58
2022-08-12T01:24:31.360Z,70.35
2022-08-12T01:27:01.478Z,69.62
2022-08-12T01:29:33.065Z,69.03
2022-08-12T01:32:06.664Z,68.75
2022-08-12T01:34:38.840Z,68.84
2022-08-12T01:37:09.425Z,68.63
2022-08-12T01:40:33.785Z,67.91
2022-08-12T01:42:52.092Z,68.55
2022-08-12T01:45:25.025Z,68.45
2022-08-12T01:48:15.992Z,68.17
2022-08-12T01:52:15.107Z,68.11
2022-08-12T01:54:30.240Z,68.23
2022-08-12T01:57:59.617Z,68.37
2022-08-12T02:00:20.260Z,68.46
2022-08-12T02:03:52.457Z,68.69
2022-08-12T02:07:47.721Z,69.50
2022-08-12T02:11:14.500Z,69.80
2022-08-12T02:14:11.734Z,70.85
2022-08-12T02:17:55.462Z,71.32
2022-08-12T02:20:52.118Z,70.69
2022-08-12T02:23:28.149Z,70.87
2022-08-12T02:26:16.060Z,72.01
2022-08-12T02:28:43.470Z,72.11
2022-08-12T02:31:11.152Z,72.12
2022-08-12T02:33:38.726Z,72.10
2022-08-12T02:36:06.279Z,71.93
2022-08-12T02:38:33.954Z,72.09
2022-08-12T02:41:04.994Z,72.68
2022-08-12T02:43:41.488Z,72.97
2022-08-12T02:46:15.051Z,73.00
2022-08-12T02:48:55.097Z,72.58
2022-08-12T02:51:51.033Z,72.39
2022-08-12T02:54:18.159Z,71.95
2022-08-12T02:56:50.311Z,71.75
2022-08-12T02:59:22.693Z,71.89
2022-08-12T03:02:04.276Z,71.79
2022-08-12T03:04:54.081Z,71.31
2022-08-12T03:07:56.565Z,71.57
2022-08-12T03:10:25.170Z,70.98
2022-08-12T03:13:08.554Z,71.16
2022-08-12T03:15:37.108Z,71.04
2022-08-12T03:18:26.868Z,71.42
2022-08-12T03:20:57.261Z,71.31
2022-08-12T03:23:29.658Z,71.60
2022-08-12T03:26:02.098Z,71.60
2022-08-12T03:28:50.955Z,72.56
2022-08-12T03:31:29.954Z,72.26
2022-08-12T03:34:10.047Z,72.07
2022-08-12T03:36:39.386Z,72.20
2022-08-12T03:39:35.947Z,72.26
2022-08-12T03:42:22.613Z,73.42
2022-08-12T03:45:52.615Z,73.36
2022-08-12T03:48:38.816Z,73.01
2022-08-12T03:51:24.249Z,72.75
2022-08-12T03:54:11.609Z,72.57
2022-08-12T03:56:58.394Z,72.77
2022-08-12T03:59:43.812Z,73.03
2022-08-12T04:02:17.928Z,73.38
2022-08-12T04:04:46.628Z,72.51
2022-08-12T04:07:16.432Z,72.61
2022-08-12T04:09:46.770Z,72.48
2022-08-12T04:12:34.259Z,73.31
2022-08-12T04:15:03.458Z,73.13
2022-08-12T04:17:32.179Z,72.84
2022-08-12T04:19:59.705Z,72.27
2022-08-12T04:22:30.661Z,72.56
2022-08-12T04:25:01.501Z,72.31
2022-08-12T04:27:31.898Z,72.53
2022-08-12T04:30:16.872Z,72.50
2022-08-12T04:32:51.081Z,72.59
2022-08-12T04:35:19.440Z,73.62
2022-08-12T04:37:58.115Z,73.90
2022-08-12T04:40:31.515Z,73.88
2022-08-12T04:43:01.486Z,73.80
2022-08-12T04:45:30.370Z,73.96
2022-08-12T04:47:57.314Z,73.95
2022-08-12T04:50:34.663Z,73.94
2022-08-12T04:53:06.083Z,74.67
2022-08-12T04:55:34.893Z,74.70
2022-08-12T04:58:02.058Z,75.25
2022-08-12T05:00:30.311Z,74.94
2022-08-12T05:02:57.141Z,75.09
2022-08-12T05:05:24.731Z,74.98
2022-08-12T05:07:54.378Z,74.40
2022-08-12T05:10:21.798Z,74.91
2022-08-12T05:13:05.817Z,75.17
2022-08-12T05:15:32.693Z,75.17
2022-08-12T05:18:00.083Z,75.70
2022-08-12T05:20:34.524Z,75.71
2022-08-12T05:23:18.053Z,75.13
2022-08-12T05:25:49.833Z,75.53
2022-08-12T05:28:18.344Z,75.60
2022-08-12T05:30:46.201Z,75.22
2022-08-12T05:33:15.684Z,75.74
2022-08-12T05:35:45.973Z,75.93
2022-08-12T05:38:34.864Z,76.21
2022-08-12T05:41:05.682Z,76.47
2022-08-12T05:43:35.389Z,76.50
2022-08-12T05:46:02.189Z,77.14
2022-08-12T05:48:32.605Z,77.37
2022-08-12T05:50:59.542Z,77.56
2022-08-12T05:53:26.619Z,77.09
2022-08-12T05:55:54.021Z,77.54
2022-08-12T05:58:21.345Z,76.89
2022-08-12T06:00:48.224Z,76.85
2022-08-12T06:03:19.617Z,76.96
2022-08-12T06:05:55.601Z,76.81
2022-08-12T06:08:24.942Z,77.08
2022-08-12T06:10:52.269Z,76.50
2022-08-12T06:13:28.112Z,76.11
2022-08-12T06:16:08.018Z,76.53
2022-08-12T06:18:34.999Z,76.13
2022-08-12T06:21:02.529Z,76.27
2022-08-12T06:23:30.423Z,76.07
2022-08-12T06:25:58.348Z,76.58
2022-08-12T06:28:26.144Z,76.72
2022-08-12T06:31:22.326Z,76.10
2022-08-12T06:33:56.106Z,76.19
2022-08-12T06:36:29.911Z,75.56
2022-08-12T06:38:59.667Z,75.74
2022-08-12T06:42:30.812Z,75.27
2022-08-12T06:44:32.762Z,73.55
2022-08-12T06:47:00.204Z,72.59
2022-08-12T06:49:28.413Z,72.98
2022-08-12T06:51:56.675Z,71.50
2022-08-12T06:54:31.656Z,70.06
2022-08-12T06:57:59.713Z,68.75
2022-08-12T06:59:48.030Z,67.73
2022-08-12T07:02:14.912Z,63.38
2022-08-12T07:04:42.246Z,63.48
2022-08-12T07:07:10.293Z,64.02
2022-08-12T07:10:04.583Z,62.42
2022-08-12T07:12:27.851Z,58.56
2022-08-12T07:14:57.485Z,56.43
2022-08-12T07:17:24.520Z,54.37
2022-08-12T07:19:52.120Z,52.12
2022-08-12T07:22:19.211Z,51.22
2022-08-12T07:25:06.043Z,51.24
2022-08-12T07:27:42.402Z,50.48
2022-08-12T07:30:10.504Z,48.91
2022-08-12T07:32:37.738Z,48.93
2022-08-12T07:35:06.476Z,48.10
2022-08-12T07:37:33.650Z,47.51
2022-08-12T07:40:01.318Z,47.58
2022-08-12T07:42:29.747Z,46.33
2022-08-12T07:44:56.790Z,45.62
2022-08-12T07:47:24.726Z,44.79
2022-08-12T07:50:04.345Z,45.25
2022-08-12T07:52:33.939Z,44.59
2022-08-12T07:55:01.685Z,44.77
2022-08-12T07:57:28.547Z,43.15
2022-08-12T07:59:55.546Z,43.45
2022-08-12T08:02:26.883Z,42.36
2022-08-12T08:04:57.675Z,42.65
2022-08-12T08:07:27.492Z,42.65
2022-08-12T08:10:00.073Z,41.80
2022-08-12T08:12:47.882Z,40.83
2022-08-12T08:15:16.704Z,39.97
2022-08-12T08:18:05.281Z,40.42
2022-08-12T08:20:41.257Z,39.99
2022-08-12T08:23:19.349Z,39.44
2022-08-12T08:25:46.200Z,39.24
2022-08-12T08:28:17.277Z,38.80
2022-08-12T08:33:24.623Z,37.79
2022-08-12T08:36:02.380Z,37.61
2022-08-12T08:38:33.268Z,37.37
2022-08-12T08:42:17.303Z,36.90
2022-08-12T08:44:11.495Z,36.35
2022-08-12T08:46:40.581Z,37.04
2022-08-12T08:49:08.651Z,36.30
2022-08-12T08:51:36.542Z,36.64
2022-08-12T08:54:03.982Z,36.71
2022-08-12T08:56:30.748Z,35.86
2022-08-12T08:58:57.997Z,35.83
2022-08-12T09:01:26.208Z,36.10
2022-08-12T09:05:08.474Z,36.04
2022-08-12T09:06:53.325Z,34.74
2022-08-12T09:09:21.364Z,34.73
2022-08-12T09:14:54.882Z,35.04
2022-08-12T09:17:22.577Z,34.92
2022-08-12T09:22:37.716Z,33.66
2022-08-12T09:25:07.229Z,34.15
2022-08-12T09:30:42.410Z,33.67
2022-08-12T09:33:18.823Z,33.10
2022-08-12T09:36:04.742Z,32.18
2022-08-12T09:38:35.318Z,31.99
2022-08-12T09:42:34.090Z,33.76
2022-08-12T09:44:38.011Z,33.69
2022-08-12T09:46:56.997Z,32.97
2022-08-12T09:49:24.889Z,31.82
2022-08-12T09:51:55.535Z,31.02
2022-08-12T09:54:33.183Z,31.64
2022-08-12T09:58:07.871Z,31.51
2022-08-12T10:00:13.329Z,32.09
2022-08-12T10:03:32.098Z,31.13
2022-08-12T10:06:19.393Z,31.79
2022-08-12T10:08:52.517Z,31.81
2022-08-12T10:12:07.750Z,30.77
2022-08-12T10:14:34.770Z,31.33
2022-08-12T10:17:08.778Z,32.08
2022-08-12T10:19:37.855Z,31.92
2022-08-12T10:22:06.230Z,31.60
2022-08-12T10:25:17.635Z,31.81
2022-08-12T10:28:09.018Z,31.57
2022-08-12T10:30:44.095Z,32.68
2022-08-12T10:33:19.284Z,32.03
2022-08-12T10:35:58.412Z,31.87
2022-08-12T10:38:38.003Z,30.93
2022-08-12T10:41:58.482Z,31.45
2022-08-12T10:44:17.426Z,30.79
2022-08-12T10:46:50.097Z,30.15
2022-08-12T10:50:03.694Z,30.25
2022-08-12T10:52:33.814Z,29.99
2022-08-12T10:54:56.226Z,30.39
2022-08-12T10:58:15.745Z,30.08
2022-08-12T11:00:30.304Z,29.74
2022-08-12T11:04:22.746Z,30.39
2022-08-12T11:07:02.638Z,30.55
2022-08-12T11:08:42.287Z,30.32
2022-08-12T11:11:13.816Z,30.23
2022-08-12T11:13:48.755Z,30.48
2022-08-12T11:16:22.441Z,30.00
2022-08-12T11:18:54.996Z,30.21
2022-08-12T11:21:51.096Z,29.61
2022-08-12T11:24:30.663Z,28.85
2022-08-12T11:26:59.745Z,28.46
2022-08-12T11:30:01.536Z,29.10
2022-08-12T11:32:15.300Z,27.83
2022-08-12T11:34:53.528Z,28.22
2022-08-12T11:37:25.978Z,28.40
2022-08-12T11:42:46.399Z,28.85
2022-08-12T11:45:16.912Z,28.92
2022-08-12T11:47:44.474Z,28.93
2022-08-12T11:50:19.660Z,28.61
2022-08-12T11:52:54.868Z,28.01
2022-08-12T11:55:23.149Z,27.83
2022-08-12T11:58:51.147Z,28.10
2022-08-12T12:03:40.234Z,27.27
2022-08-12T12:06:14.224Z,26.65
2022-08-12T12:08:50.447Z,28.24
2022-08-12T12:11:18.945Z,26.77
2022-08-12T12:14:07.929Z,25.70
2022-08-12T12:16:33.651Z,26.62
2022-08-12T12:19:10.018Z,26.57
2022-08-12T12:21:47.855Z,26.41
2022-08-12T12:24:22.195Z,26.09
2022-08-12T12:27:00.372Z,26.59
2022-08-12T12:30:13.876Z,26.86
2022-08-12T12:32:17.210Z,26.52
2022-08-12T12:35:14.369Z,26.92
2022-08-12T12:38:04.231Z,26.41
2022-08-12T12:40:19.073Z,27.22
2022-08-12T12:42:56.814Z,26.64
2022-08-12T12:45:28.331Z,26.59
2022-08-12T12:48:08.203Z,25.47
2022-08-12T12:50:51.091Z,26.15
2022-08-12T12:54:05.819Z,26.45
2022-08-12T12:56:16.166Z,26.64
2022-08-12T12:58:43.887Z,27.42
2022-08-12T13:01:25.294Z,27.44
2022-08-12T13:04:01.986Z,27.74
2022-08-12T13:06:31.789Z,27.47
2022-08-12T13:09:02.594Z,27.85
2022-08-12T13:11:41.651Z,27.47
2022-08-12T13:14:29.118Z,27.26
2022-08-12T13:17:03.617Z,26.34
2022-08-12T13:19:46.592Z,26.66
2022-08-12T13:22:19.626Z,25.92
2022-08-12T13:24:56.135Z,26.29
2022-08-12T13:27:35.282Z,25.98
2022-08-12T13:30:13.917Z,25.54
2022-08-12T13:32:56.598Z,25.89
2022-08-12T13:36:02.856Z,24.86
2022-08-12T13:38:10.916Z,25.04
2022-08-12T13:40:40.674Z,25.21
2022-08-12T13:43:07.593Z,25.31
2022-08-12T13:45:36.671Z,25.40
2022-08-12T13:48:08.092Z,25.25
2022-08-12T13:50:41.609Z,25.59
2022-08-12T13:53:23.803Z,25.21
2022-08-12T13:55:59.748Z,25.23
2022-08-12T13:58:32.829Z,24.93
2022-08-12T14:01:04.684Z,24.72
2022-08-12T14:03:51.522Z,24.62
2022-08-12T14:06:18.489Z,24.76
2022-08-12T14:08:45.565Z,24.03
2022-08-12T14:11:18.286Z,23.36
2022-08-12T14:14:03.470Z,22.75
2022-08-12T14:16:46.681Z,22.94
2022-08-12T14:19:24.208Z,22.63
2022-08-12T14:22:00.594Z,22.24
2022-08-12T14:24:40.263Z,22.34
2022-08-12T14:27:10.614Z,22.68
2022-08-12T14:30:04.686Z,22.20
2022-08-12T14:32:34.832Z,22.16
2022-08-12T14:35:04.024Z,22.22
2022-08-12T14:37:56.136Z,21.38
2022-08-12T14:40:18.555Z,20.48
2022-08-12T14:42:49.619Z,19.47
2022-08-12T14:45:18.144Z,19.68
2022-08-12T14:47:58.500Z,19.34
2022-08-12T14:50:41.120Z,21.60
2022-08-12T14:55:13.870Z,21.10
2022-08-12T14:59:23.724Z,19.73
2022-08-12T15:01:52.030Z,19.73
2022-08-12T15:04:26.108Z,19.42
2022-08-12T15:06:55.146Z,18.46
2022-08-12T15:09:29.293Z,18.68
2022-08-12T15:12:03.232Z,18.81
2022-08-12T15:14:31.969Z,19.68
2022-08-12T15:17:00.117Z,21.09
2022-08-12T15:20:18.002Z,20.78
2022-08-12T15:22:37.373Z,20.18
2022-08-12T15:25:07.475Z,19.56
2022-08-12T15:28:10.930Z,20.61
2022-08-12T15:30:30.778Z,19.71
2022-08-12T15:32:58.205Z,19.91
2022-08-12T15:35:38.336Z,19.86
2022-08-12T15:38:19.543Z,19.57
2022-08-12T15:40:49.713Z,19.81
2022-08-12T15:43:51.344Z,21.02
2022-08-12T15:46:15.261Z,21.13
2022-08-12T15:48:47.001Z,21.65
2022-08-12T15:51:57.314Z,21.92
2022-08-12T15:54:33.825Z,21.84
2022-08-12T15:57:07.647Z,22.61
2022-08-12T16:00:04.128Z,22.75
2022-08-12T16:02:29.569Z,23.58
2022-08-12T16:04:56.913Z,23.79
2022-08-12T16:07:26.026Z,24.24
2022-08-12T16:10:08.104Z,24.55
2022-08-12T16:12:55.099Z,25.14
2022-08-12T16:15:29.353Z,25.08
2022-08-12T16:18:14.924Z,25.37
2022-08-12T16:20:46.803Z,25.25
2022-08-12T16:23:36.140Z,24.88
2022-08-12T16:26:14.614Z,25.16
2022-08-12T16:28:47.187Z,25.29
2022-08-12T16:31:22.749Z,25.45
2022-08-12T16:33:59.534Z,26.02
2022-08-12T16:36:29.624Z,25.60
2022-08-12T16:38:56.908Z,25.92
2022-08-12T16:41:24.044Z,25.76
2022-08-12T16:43:53.123Z,25.37
2022-08-12T16:46:32.384Z,25.30
2022-08-12T16:49:09.163Z,25.87
2022-08-12T16:51:46.336Z,25.17
2022-08-12T16:54:17.221Z,25.80
2022-08-12T16:56:54.876Z,25.56
2022-08-12T16:59:30.790Z,26.23
2022-08-12T17:02:33.760Z,26.83
2022-08-12T17:05:04.793Z,25.94
2022-08-12T17:07:43.743Z,26.25
2022-08-12T17:10:18.135Z,26.38
2022-08-12T17:12:45.540Z,26.19
2022-08-12T17:15:50.822Z,26.45
2022-08-12T17:18:38.889Z,26.63
2022-08-12T17:20:49.437Z,26.81
2022-08-12T17:23:19.436Z,26.72
2022-08-12T17:25:52.878Z,27.00
2022-08-12T17:28:22.671Z,27.14
2022-08-12T17:30:57.369Z,27.60
2022-08-12T17:33:27.758Z,26.92
2022-08-12T17:36:03.669Z,27.33
2022-08-12T17:38:30.651Z,27.58
2022-08-12T17:40:57.978Z,27.11
2022-08-12T17:43:51.940Z,26.99
2022-08-12T17:46:24.002Z,26.88
2022-08-12T17:48:59.802Z,26.65
2022-08-12T17:51:31.662Z,26.94
2022-08-12T17:54:06.368Z,27.03
2022-08-12T17:56:43.113Z,26.68
2022-08-12T17:59:12.403Z,26.89
2022-08-12T18:01:45.392Z,27.65
2022-08-12T18:04:23.410Z,27.73
2022-08-12T18:07:02.429Z,28.17
2022-08-12T18:09:36.332Z,27.81
2022-08-12T18:12:24.569Z,28.23
2022-08-12T18:15:02.308Z,28.74
2022-08-12T18:17:39.370Z,29.48
2022-08-12T18:20:15.481Z,30.34
2022-08-12T18:22:46.702Z,30.79
2022-08-12T18:26:16.390Z,31.75
2022-08-12T18:28:29.248Z,31.71
2022-08-12T18:31:03.198Z,31.84
2022-08-12T18:33:41.577Z,32.01
2022-08-12T18:36:13.647Z,32.14
2022-08-12T18:38:44.972Z,32.44
2022-08-12T18:41:35.894Z,32.87
2022-08-12T18:44:11.348Z,32.97
2022-08-12T18:46:55.351Z,33.19
2022-08-12T18:49:34.623Z,33.49
2022-08-12T18:52:07.672Z,33.49
2022-08-12T18:54:48.060Z,33.97
2022-08-12T18:57:45.930Z,34.23
2022-08-12T19:00:07.883Z,34.13
2022-08-12T19:02:39.950Z,34.96
2022-08-12T19:05:14.423Z,35.92
2022-08-12T19:08:00.906Z,35.89
2022-08-12T19:10:31.602Z,36.37
2022-08-12T19:13:23.065Z,36.65
2022-08-12T19:15:54.561Z,37.10
2022-08-12T19:18:25.928Z,38.04
2022-08-12T19:20:58.682Z,38.66
2022-08-12T19:23:34.992Z,39.31
2022-08-12T19:26:05.347Z,38.99
2022-08-12T19:28:39.746Z,38.91
2022-08-12T19:31:45.436Z,40.41
2022-08-12T19:38:04.398Z,42.00
2022-08-12T19:40:32.361Z,41.41
2022-08-12T19:43:19.945Z,41.94
2022-08-12T19:45:56.696Z,42.55
2022-08-12T19:48:30.312Z,42.61
2022-08-12T19:50:57.585Z,42.89
2022-08-12T19:53:25.221Z,42.60
2022-08-12T19:55:57.152Z,43.40
2022-08-12T19:58:25.490Z,44.06
2022-08-12T20:00:55.462Z,44.37
2022-08-12T20:03:39.561Z,45.03
2022-08-12T20:06:15.542Z,45.31
2022-08-12T20:08:56.488Z,46.17
2022-08-12T20:12:11.623Z,45.90
2022-08-12T20:14:19.641Z,46.13
2022-08-12T20:17:01.911Z,46.66
2022-08-12T20:20:01.174Z,47.08
2022-08-12T20:22:29.915Z,46.98
2022-08-12T20:25:07.120Z,47.64
2022-08-12T20:28:05.656Z,48.15
2022-08-12T20:30:37.298Z,47.48
2022-08-12T20:33:17.347Z,48.20
2022-08-12T20:36:13.233Z,48.24
2022-08-12T20:38:38.353Z,48.48
2022-08-12T20:41:16.726Z,48.11
2022-08-12T20:43:49.759Z,48.47
2022-08-12T20:46:19.101Z,48.55
2022-08-12T20:48:54.806Z,48.61
2022-08-12T20:51:27.447Z,48.94
2022-08-12T20:53:58.639Z,48.70
2022-08-12T20:56:34.622Z,48.93
2022-08-12T20:59:14.689Z,49.36
2022-08-12T21:01:48.525Z,49.95
2022-08-12T21:04:36.482Z,50.03
2022-08-12T21:07:08.496Z,50.28
2022-08-12T21:09:51.067Z,50.65
2022-08-12T21:12:27.495Z,50.92
2022-08-12T21:15:23.058Z,51.30
2022-08-12T21:18:08.136Z,50.98
2022-08-12T21:20:36.910Z,50.94
2022-08-12T21:23:08.973Z,51.00
2022-08-12T21:25:45.315Z,51.49
2022-08-12T21:28:14.583Z,51.70
2022-08-12T21:31:11.222Z,51.71
2022-08-12T21:33:58.344Z,52.04
2022-08-12T21:36:22.817Z,52.12
2022-08-12T21:39:20.465Z,51.98
2022-08-12T21:41:54.813Z,52.29
2022-08-12T21:45:43.932Z,52.88
2022-08-12T21:47:19.796Z,52.87
2022-08-12T21:50:03.269Z,53.05
2022-08-12T21:52:41.022Z,53.49
2022-08-12T21:55:19.085Z,53.31
2022-08-12T21:57:54.469Z,53.38
2022-08-12T22:00:35.129Z,53.87
2022-08-12T22:04:03.089Z,53.87
2022-08-12T22:06:30.723Z,53.89
2022-08-12T22:09:17.185Z,53.92
2022-08-12T22:11:49.209Z,54.24
2022-08-12T22:14:28.816Z,54.96
2022-08-12T22:16:57.708Z,55.79
2022-08-12T22:19:24.924Z,55.52
2022-08-12T22:21:55.883Z,55.52
2022-08-12T22:24:26.811Z,55.56
2022-08-12T22:27:17.843Z,55.59
2022-08-12T22:30:05.214Z,55.51
2022-08-12T22:32:33.686Z,55.99
2022-08-12T22:35:22.248Z,56.46
2022-08-12T22:37:50.852Z,57.00
2022-08-12T22:40:20.747Z,57.13
2022-08-12T22:43:06.403Z,57.56
2022-08-12T22:45:56.606Z,57.65
2022-08-12T22:48:26.550Z,58.39
2022-08-12T22:50:59.236Z,57.86
2022-08-12T22:53:36.208Z,57.78
2022-08-12T22:56:08.148Z,58.04
2022-08-12T22:58:40.582Z,58.31
2022-08-12T23:01:11.241Z,58.63
2022-08-12T23:03:48.891Z,59.07
2022-08-12T23:06:23.978Z,59.06
2022-08-12T23:08:52.297Z,59.06
2022-08-12T23:11:23.482Z,59.26
2022-08-12T23:13:55.070Z,59.24
2022-08-12T23:16:30.943Z,59.49
2022-08-12T23:19:29.695Z,59.29
2022-08-12T23:22:37.123Z,59.78
2022-08-12T23:24:55.789Z,59.39
2022-08-12T23:27:52.293Z,60.47
2022-08-12T23:30:32.157Z,60.86
2022-08-12T23:33:13.597Z,61.22
2022-08-12T23:35:59.460Z,61.02
2022-08-12T23:38:32.447Z,61.10
2022-08-12T23:41:05.958Z,60.82
2022-08-12T23:43:39.628Z,60.75
2022-08-12T23:46:18.649Z,61.23
2022-08-12T23:48:47.896Z,60.89
2022-08-12T23:51:21.649Z,61.01
2022-08-12T23:54:02.547Z,61.35
2022-08-12T23:56:33.668Z,61.38
2022-08-12T23:59:07.838Z,61.31
